Time;durP1;ratioP1;P1;durP2;ratioP2;P2;SDS_P1;SDS_P2;PMS_P1;PMS_P2;Temp;Humidity;BMP_temperature;BMP_pressure;BME280_temperature;BME280_humidity;BME280_pressure;Samples;Min_cycle;Max_cycle;Signal;HPM_P1;HPM_P2
2022/05/07 00:01:25;;;;;;;4.03;2.70;;;;;;;14.06;43.13;94269.13;4988412;28;20461;-69
2022/05/07 00:03:50;;;;;;;3.63;2.97;;;;;;;13.99;42.56;94279.53;4992552;28;20077;-69
2022/05/07 00:06:16;;;;;;;5.55;3.33;;;;;;;14.01;42.33;94263.97;4991649;28;20026;-69
2022/05/07 00:08:41;;;;;;;3.67;2.95;;;;;;;14.08;42.06;94289.06;4992729;28;20233;-70
2022/05/07 00:11:07;;;;;;;5.85;3.05;;;;;;;14.08;42.23;94288.31;4992212;28;20407;-69
2022/05/07 00:13:32;;;;;;;4.53;2.70;;;;;;;14.11;42.08;94279.63;4989691;28;20493;-69
2022/05/07 00:18:41;;;;;;;9.18;2.92;;;;;;;14.02;41.70;94266.31;4984637;28;20461;-69
2022/05/07 00:21:08;;;;;;;5.28;2.42;;;;;;;13.99;42.11;94266.94;4974448;28;20038;-69
2022/05/07 00:23:33;;;;;;;4.68;2.70;;;;;;;14.00;42.43;94281.09;4973686;28;20045;-70
2022/05/07 00:25:59;;;;;;;3.28;2.45;;;;;;;13.93;42.61;94286.19;4971280;28;20042;-69
2022/05/07 00:28:24;;;;;;;4.93;2.95;;;;;;;13.83;42.10;94257.13;4971560;28;20038;-69
2022/05/07 00:30:50;;;;;;;3.97;2.80;;;;;;;13.63;42.02;94219.34;4975074;28;20050;-69
2022/05/07 00:33:16;;;;;;;5.18;2.47;;;;;;;14.00;42.04;94281.88;4967995;28;20034;-69
2022/05/07 00:35:41;;;;;;;4.05;2.90;;;;;;;13.96;42.06;94285.53;4974002;28;20122;-69
2022/05/07 00:38:06;;;;;;;5.60;2.60;;;;;;;13.82;42.34;94283.09;4972773;28;20443;-68
2022/05/07 00:40:32;;;;;;;5.55;2.63;;;;;;;13.85;42.49;94285.09;4975866;28;20042;-69
2022/05/07 00:42:57;;;;;;;4.63;2.90;;;;;;;13.77;42.47;94266.44;4970464;28;20038;-69
2022/05/07 00:45:23;;;;;;;3.95;3.10;;;;;;;13.78;42.43;94282.16;4972546;28;20096;-69
2022/05/07 00:47:48;;;;;;;4.32;3.15;;;;;;;13.76;42.36;94262.97;4971093;28;20450;-70
2022/05/07 00:52:57;;;;;;;2.83;2.50;;;;;;;13.87;41.81;94274.09;4974021;28;20116;-69
2022/05/07 00:55:25;;;;;;;4.10;2.95;;;;;;;13.81;42.00;94259.34;4971027;28;20562;-70
2022/05/07 00:57:50;;;;;;;3.28;2.97;;;;;;;13.61;41.55;94234.91;4966893;28;20053;-68
2022/05/07 01:00:16;;;;;;;3.53;2.78;;;;;;;13.84;41.70;94253.38;4970805;28;20054;-69
2022/05/07 01:02:41;;;;;;;5.68;3.00;;;;;;;13.28;42.06;94244.59;4969889;28;20271;-69
2022/05/07 01:05:08;;;;;;;5.63;3.60;;;;;;;13.37;42.00;94266.72;4974714;28;20030;-69
2022/05/07 01:07:36;;;;;;;3.58;3.22;;;;;;;13.55;42.28;94249.50;4973396;28;20188;-69
2022/05/07 01:10:03;;;;;;;5.30;3.30;;;;;;;13.64;42.74;94273.56;4969397;28;20042;-69
2022/05/07 01:12:29;;;;;;;5.88;2.97;;;;;;;13.63;42.58;94272.78;4969214;28;20034;-70
2022/05/07 01:14:58;;;;;;;4.57;3.10;;;;;;;13.65;42.77;94270.56;4973456;28;20053;-70
2022/05/07 01:17:25;;;;;;;5.47;3.25;;;;;;;13.67;42.97;94279.06;4971760;28;20113;-68
2022/05/07 01:19:54;;;;;;;4.57;2.90;;;;;;;13.59;43.52;94277.19;4972617;28;20058;-69
2022/05/07 01:22:20;;;;;;;5.80;3.35;;;;;;;13.59;43.54;94287.13;4974312;28;20042;-70
2022/05/07 01:24:46;;;;;;;4.90;2.72;;;;;;;13.53;43.78;94272.31;4972000;28;20974;-69
2022/05/07 01:27:11;;;;;;;3.13;2.67;;;;;;;13.46;41.90;94274.69;4970968;28;20133;-70
2022/05/07 01:29:37;;;;;;;2.60;2.35;;;;;;;13.38;41.64;94276.31;4971150;28;20037;-69
2022/05/07 01:32:02;;;;;;;6.05;2.55;;;;;;;13.22;42.37;94256.53;4973926;28;20057;-69
2022/05/07 01:34:28;;;;;;;3.88;2.70;;;;;;;13.49;40.97;94284.75;4971500;28;20045;-69
2022/05/07 01:36:53;;;;;;;4.55;2.70;;;;;;;13.38;42.26;94284.31;4968812;28;21177;-70
2022/05/07 01:39:19;;;;;;;4.53;3.22;;;;;;;13.34;42.80;94275.38;4971704;28;20042;-70
2022/05/07 01:41:44;;;;;;;4.05;3.50;;;;;;;13.31;43.23;94270.66;4970556;28;20019;-71
2022/05/07 01:44:09;;;;;;;4.55;2.50;;;;;;;13.19;43.21;94254.53;4978705;28;20036;-69
2022/05/07 01:49:18;;;;;;;5.07;2.53;;;;;;;13.36;41.99;94277.72;4997569;28;20115;-69
2022/05/07 01:51:44;;;;;;;5.55;2.55;;;;;;;13.20;41.12;94256.09;4997280;28;20038;-69
2022/05/07 01:54:09;;;;;;;5.78;2.40;;;;;;;13.22;41.70;94259.22;4997582;28;20433;-69
2022/05/07 01:56:34;;;;;;;5.13;2.08;;;;;;;12.90;42.05;94241.84;4996329;28;20084;-69
2022/05/07 01:59:00;;;;;;;7.25;2.47;;;;;;;13.14;41.76;94276.84;4996413;28;20113;-69
2022/05/07 02:01:25;;;;;;;6.68;2.53;;;;;;;12.82;42.15;94216.72;4989853;28;20124;-70
2022/05/07 02:03:51;;;;;;;5.80;2.58;;;;;;;13.24;42.50;94270.38;4992207;28;20535;-69
2022/05/07 02:06:17;;;;;;;3.97;2.63;;;;;;;13.16;43.04;94271.16;4993731;28;20042;-69
2022/05/07 02:08:43;;;;;;;4.47;3.65;;;;;;;13.16;42.91;94274.63;4994259;28;20054;-69
2022/05/07 02:11:08;;;;;;;3.45;2.30;;;;;;;12.95;43.21;94251.59;4997321;28;20029;-69
2022/05/07 02:13:34;;;;;;;9.35;3.28;;;;;;;12.99;43.11;94263.19;4995793;28;20049;-70
2022/05/07 02:15:59;;;;;;;5.72;2.88;;;;;;;13.04;43.89;94281.72;4997300;28;20042;-69
2022/05/07 02:18:25;;;;;;;3.72;3.20;;;;;;;12.94;43.57;94287.38;4993606;28;20037;-69
2022/05/07 02:20:52;;;;;;;4.95;2.97;;;;;;;12.86;44.04;94286.28;4991807;28;20163;-69
2022/05/07 02:23:18;;;;;;;4.07;3.25;;;;;;;12.95;43.39;94281.75;4998730;28;20026;-70
2022/05/07 02:25:44;;;;;;;3.13;2.72;;;;;;;12.84;43.45;94283.94;4994156;28;20034;-68
2022/05/07 02:28:09;;;;;;;7.82;3.53;;;;;;;12.74;44.04;94286.94;4992880;28;20046;-69
2022/05/07 02:30:34;;;;;;;4.40;2.75;;;;;;;12.65;44.21;94280.03;4996430;28;20099;-70
2022/05/07 02:33:00;;;;;;;5.07;3.03;;;;;;;12.43;44.71;94292.38;4997651;28;20145;-68
2022/05/07 02:35:25;;;;;;;4.28;3.33;;;;;;;12.60;44.66;94288.19;4996700;28;20182;-68
2022/05/07 02:37:51;;;;;;;7.57;3.20;;;;;;;12.56;44.46;94293.34;4997819;28;20050;-69
2022/05/07 02:40:16;;;;;;;7.28;3.70;;;;;;;12.48;44.74;94291.44;4996912;28;20256;-69
2022/05/07 02:42:41;;;;;;;8.50;4.88;;;;;;;12.56;44.70;94292.56;4995083;28;20054;-69
2022/05/07 02:45:09;;;;;;;4.45;3.03;;;;;;;11.54;44.88;94302.66;4998107;28;20049;-68
2022/05/07 02:47:39;;;;;;;6.55;2.92;;;;;;;11.35;44.39;94302.81;4994207;28;20045;-69
2022/05/07 02:50:06;;;;;;;5.72;2.55;;;;;;;11.75;44.24;94303.66;4994061;28;20441;-69
2022/05/07 02:52:34;;;;;;;3.10;2.05;;;;;;;11.69;43.53;94270.25;4994649;28;20040;-69
2022/05/07 02:55:05;;;;;;;5.50;2.72;;;;;;;11.72;43.63;94274.97;4996220;28;20126;-69
2022/05/07 02:57:30;;;;;;;5.50;2.00;;;;;;;11.96;42.96;94280.69;4996213;28;20042;-68
2022/05/07 02:59:56;;;;;;;3.88;2.22;;;;;;;11.90;43.11;94297.13;4993826;28;20038;-69
2022/05/07 03:02:22;;;;;;;2.95;1.70;;;;;;;12.05;43.01;94296.69;4993498;28;20038;-69
2022/05/07 03:04:48;;;;;;;5.57;2.28;;;;;;;11.88;43.03;94300.09;4996114;28;20034;-69
2022/05/07 03:07:14;;;;;;;4.10;2.40;;;;;;;11.90;43.41;94275.81;4994569;28;20034;-69
2022/05/07 03:09:40;;;;;;;5.97;2.35;;;;;;;12.03;43.60;94291.66;4994778;28;20037;-68
2022/05/07 03:12:05;;;;;;;9.95;2.50;;;;;;;12.03;43.53;94282.88;4995074;28;20177;-70
2022/05/07 03:14:32;;;;;;;4.57;2.65;;;;;;;11.96;43.86;94298.56;4996275;28;20026;-69
2022/05/07 03:16:58;;;;;;;3.95;2.30;;;;;;;11.98;44.07;94297.16;4995078;28;20038;-68
2022/05/07 03:19:23;;;;;;;3.13;2.40;;;;;;;11.92;44.30;94295.75;4991771;28;20037;-69
2022/05/07 03:21:49;;;;;;;3.97;2.85;;;;;;;11.95;44.39;94295.09;4995755;28;20049;-69
2022/05/07 03:24:14;;;;;;;3.90;2.55;;;;;;;11.91;43.72;94299.50;4994990;28;21077;-69
2022/05/07 03:26:39;;;;;;;6.78;2.47;;;;;;;11.90;44.16;94300.56;4989434;28;20026;-69
2022/05/07 03:29:05;;;;;;;4.13;2.42;;;;;;;11.64;44.22;94248.31;4994388;28;20034;-68
2022/05/07 03:31:30;;;;;;;2.95;2.60;;;;;;;12.02;44.27;94300.78;4993673;28;20065;-69
2022/05/07 03:33:56;;;;;;;4.03;2.28;;;;;;;11.95;44.31;94292.44;4993635;28;20111;-71
2022/05/07 03:36:21;;;;;;;3.70;2.50;;;;;;;11.95;44.94;94292.44;4992163;28;20049;-69
2022/05/07 03:38:47;;;;;;;3.45;2.60;;;;;;;11.94;44.61;94296.19;4994588;28;20108;-69
2022/05/07 03:41:14;;;;;;;3.10;2.20;;;;;;;11.74;45.05;94275.44;4996380;28;20425;-68
2022/05/07 03:43:41;;;;;;;5.10;2.88;;;;;;;11.92;45.15;94298.41;4994000;28;20640;-70
2022/05/07 03:46:08;;;;;;;4.72;2.47;;;;;;;11.71;45.19;94269.94;4955314;28;1136308;-70
2022/05/07 03:48:34;;;;;;;2.85;2.22;;;;;;;11.65;45.47;94279.94;4991014;28;20569;-70
2022/05/07 03:51:00;;;;;;;4.15;2.85;;;;;;;11.73;45.41;94299.75;4994019;28;20041;-70
2022/05/07 03:53:31;;;;;;;3.05;2.75;;;;;;;11.56;45.90;94282.59;4995472;28;20040;-69
2022/05/07 03:56:06;;;;;;;2.88;2.10;;;;;;;11.74;45.93;94315.41;4996482;28;20030;-69
2022/05/07 03:58:32;;;;;;;7.05;2.92;;;;;;;11.62;45.80;94309.09;4988239;28;20076;-69
2022/05/07 04:00:58;;;;;;;6.82;2.70;;;;;;;11.71;45.35;94316.03;4995997;28;20038;-69
2022/05/07 04:03:24;;;;;;;4.50;2.20;;;;;;;11.61;45.00;94318.97;4991215;28;20489;-69
2022/05/07 04:05:50;;;;;;;6.53;2.38;;;;;;;11.70;45.00;94330.44;4992897;28;20054;-69
2022/05/07 04:08:16;;;;;;;5.15;3.10;;;;;;;11.71;44.98;94329.34;4991774;28;20068;-70
2022/05/07 04:10:45;;;;;;;6.00;2.95;;;;;;;11.60;44.70;94314.72;4995634;28;20585;-69
2022/05/07 04:13:12;;;;;;;4.28;2.70;;;;;;;11.90;44.89;94335.22;4991364;28;21071;-69
2022/05/07 04:15:38;;;;;;;6.15;2.80;;;;;;;11.55;44.77;94338.81;4993763;28;20053;-71
2022/05/07 04:18:07;;;;;;;6.10;2.58;;;;;;;10.74;45.48;94340.78;4989895;28;20464;-69
2022/05/07 04:20:33;;;;;;;4.38;2.38;;;;;;;9.96;47.21;94336.56;4994221;28;20029;-69
2022/05/07 04:22:58;;;;;;;4.50;2.00;;;;;;;9.76;48.13;94339.59;4972847;28;20503;-69
2022/05/07 04:25:24;;;;;;;5.40;2.85;;;;;;;9.71;47.76;94307.81;4988045;28;20045;-68
2022/05/07 04:27:49;;;;;;;5.53;2.75;;;;;;;10.18;47.32;94307.38;4993170;28;20050;-69
2022/05/07 04:30:15;;;;;;;4.00;2.50;;;;;;;10.54;47.49;94325.28;4996170;28;20046;-69
2022/05/07 04:32:40;;;;;;;3.00;2.45;;;;;;;10.27;47.34;94334.84;4994383;28;20060;-69
2022/05/07 04:35:06;;;;;;;4.45;3.53;;;;;;;10.58;46.63;94331.56;4995265;28;20556;-69
2022/05/07 04:37:31;;;;;;;4.45;3.00;;;;;;;10.98;45.83;94313.88;4993617;28;20057;-69
2022/05/07 04:39:57;;;;;;;5.10;2.85;;;;;;;11.10;45.96;94333.53;4993868;28;20037;-69
2022/05/07 04:42:22;;;;;;;3.35;2.47;;;;;;;11.31;46.20;94331.16;4990711;28;20101;-69
2022/05/07 04:44:47;;;;;;;3.45;2.17;;;;;;;11.82;45.28;94337.88;4994687;28;20435;-70
2022/05/07 04:47:13;;;;;;;7.40;2.53;;;;;;;12.07;44.50;94328.41;4995211;28;20028;-69
2022/05/07 04:49:38;;;;;;;3.13;2.50;;;;;;;12.30;43.83;94335.97;4993152;28;20188;-70
2022/05/07 04:52:07;;;;;;;3.33;2.47;;;;;;;12.25;43.98;94335.34;4994081;28;20113;-69
2022/05/07 04:54:33;;;;;;;3.38;2.33;;;;;;;12.39;44.54;94330.66;4996098;28;20496;-69
2022/05/07 04:56:59;;;;;;;3.58;2.90;;;;;;;12.70;43.50;94331.38;4988908;28;20050;-69
2022/05/07 04:59:25;;;;;;;5.78;3.95;;;;;;;12.77;43.37;94330.88;4995937;28;20071;-69
2022/05/07 05:01:50;;;;;;;5.22;2.67;;;;;;;12.55;43.62;94313.09;4994381;28;20038;-69
2022/05/07 05:04:16;;;;;;;4.80;2.60;;;;;;;12.87;42.43;94302.00;4989459;28;20057;-69
2022/05/07 05:06:42;;;;;;;4.78;2.45;;;;;;;13.17;42.07;94336.81;4994916;28;20046;-70
2022/05/07 05:09:08;;;;;;;15.93;2.90;;;;;;;12.62;43.24;94332.13;4992287;28;20573;-69
2022/05/07 05:11:34;;;;;;;4.22;2.72;;;;;;;13.09;43.04;94332.28;4993638;28;20026;-69
2022/05/07 05:14:00;;;;;;;7.30;3.03;;;;;;;13.40;42.21;94326.75;4972378;28;20044;-69
2022/05/07 05:16:26;;;;;;;5.10;2.53;;;;;;;13.46;42.33;94328.13;4970328;28;20041;-69
2022/05/07 05:18:51;;;;;;;5.97;3.47;;;;;;;12.96;42.72;94328.66;4971668;28;20046;-69
2022/05/07 05:21:17;;;;;;;3.45;2.72;;;;;;;13.36;42.09;94326.59;4968854;28;20039;-69
2022/05/07 05:23:42;;;;;;;3.80;2.22;;;;;;;12.85;42.94;94332.78;4972011;28;20046;-69
2022/05/07 05:26:08;;;;;;;8.82;3.25;;;;;;;12.87;43.61;94331.34;4970791;28;20152;-70
2022/05/07 05:28:37;;;;;;;7.05;3.08;;;;;;;12.99;43.45;94329.94;4972264;28;20990;-69
2022/05/07 05:31:03;;;;;;;5.90;2.97;;;;;;;12.58;43.65;94339.19;4972768;28;20111;-69
2022/05/07 05:33:28;;;;;;;5.57;3.42;;;;;;;12.40;44.48;94341.03;4969050;28;20042;-69
2022/05/07 05:35:53;;;;;;;4.40;3.00;;;;;;;11.60;45.27;94277.44;4972523;28;20056;-69
2022/05/07 05:38:19;;;;;;;8.10;2.70;;;;;;;11.78;45.70;94348.38;4970620;28;20034;-69
2022/05/07 05:40:44;;;;;;;7.60;4.25;;;;;;;12.02;46.51;94338.09;4972044;28;20643;-69
2022/05/07 05:43:10;;;;;;;7.13;3.47;;;;;;;11.87;46.05;94343.84;4968669;28;20037;-69
2022/05/07 05:45:37;;;;;;;5.75;3.33;;;;;;;11.33;46.77;94338.84;4977225;28;20062;-69
2022/05/07 05:48:04;;;;;;;6.53;3.28;;;;;;;11.06;46.88;94337.88;4974592;28;20035;-69
2022/05/07 05:50:30;;;;;;;6.68;3.33;;;;;;;11.08;47.61;94325.06;4971225;28;20069;-68
2022/05/07 05:52:56;;;;;;;10.05;3.13;;;;;;;11.13;47.54;94335.59;4975660;28;20089;-69
2022/05/07 05:55:21;;;;;;;7.82;3.00;;;;;;;11.03;47.83;94346.47;4968723;28;20369;-69
2022/05/07 05:57:47;;;;;;;4.80;3.30;;;;;;;11.07;48.33;94331.47;4969328;28;20038;-69
2022/05/07 06:00:13;;;;;;;4.00;3.00;;;;;;;11.38;47.30;94350.16;4967080;28;20038;-67
2022/05/07 06:02:38;;;;;;;12.05;3.38;;;;;;;11.36;47.15;94336.34;4967664;28;20030;-69
2022/05/07 06:05:04;;;;;;;5.38;2.70;;;;;;;11.24;47.60;94322.03;4966345;28;20026;-69
2022/05/07 06:07:30;;;;;;;6.68;3.25;;;;;;;11.29;47.81;94353.88;4968812;28;20072;-68
2022/05/07 06:09:55;;;;;;;3.78;2.60;;;;;;;11.26;47.61;94309.19;4968693;28;20499;-69
2022/05/07 06:12:21;;;;;;;5.03;3.28;;;;;;;11.39;47.59;94348.28;4966178;28;20065;-70
2022/05/07 06:14:47;;;;;;;4.22;2.72;;;;;;;11.50;47.93;94354.91;4965646;28;20023;-68
2022/05/07 06:17:13;;;;;;;4.28;3.00;;;;;;;11.58;48.15;94355.00;4964637;28;20114;-68
2022/05/07 06:19:38;;;;;;;4.50;3.40;;;;;;;11.49;47.78;94350.69;4964877;28;20049;-69
2022/05/07 06:22:03;;;;;;;7.20;4.25;;;;;;;11.52;47.50;94355.44;4964314;28;20057;-69
2022/05/07 06:27:28;;;;;;;6.38;4.03;;;;;;;11.91;47.66;94347.47;4962143;28;20052;-70
2022/05/07 06:29:54;;;;;;;7.18;3.85;;;;;;;11.89;47.21;94354.97;4968845;28;20461;-69
2022/05/07 06:32:19;;;;;;;9.52;3.15;;;;;;;11.83;47.38;94324.22;4970546;28;20022;-70
2022/05/07 06:34:46;;;;;;;12.57;2.97;;;;;;;12.03;47.31;94345.00;4970458;28;20505;-70
2022/05/07 06:37:12;;;;;;;4.32;3.20;;;;;;;12.26;47.42;94334.25;4969388;28;20438;-69
2022/05/07 06:39:38;;;;;;;8.52;3.58;;;;;;;12.72;46.22;94347.81;4969506;28;20034;-69
2022/05/07 06:42:04;;;;;;;3.97;3.03;;;;;;;12.64;45.96;94342.50;4975566;28;20119;-69
2022/05/07 06:44:29;;;;;;;6.18;3.30;;;;;;;12.55;45.72;94344.34;4994019;28;20640;-69
2022/05/07 06:46:56;;;;;;;5.15;3.63;;;;;;;12.77;45.81;94341.56;4987688;28;20312;-69
2022/05/07 06:49:22;;;;;;;4.82;2.70;;;;;;;12.59;45.57;94323.97;4991768;28;20100;-69
2022/05/07 06:51:47;;;;;;;4.80;2.95;;;;;;;12.81;45.43;94329.16;4988705;28;21122;-68
2022/05/07 06:54:13;;;;;;;5.47;2.30;;;;;;;12.99;45.01;94343.28;4993788;28;20124;-69
2022/05/07 06:56:38;;;;;;;5.57;2.55;;;;;;;12.88;45.19;94335.59;4989712;28;20152;-70
2022/05/07 06:59:04;;;;;;;6.63;2.92;;;;;;;13.26;44.80;94337.59;4988484;28;20069;-70
2022/05/07 07:01:29;;;;;;;4.80;3.45;;;;;;;13.04;44.49;94335.91;4990172;28;20038;-69
2022/05/07 07:03:55;;;;;;;7.65;3.00;;;;;;;12.89;45.06;94318.47;4990941;28;20450;-68
2022/05/07 07:06:20;;;;;;;22.23;4.65;;;;;;;13.03;45.10;94334.34;4989373;28;20099;-69
2022/05/07 07:08:46;;;;;;;5.10;3.45;;;;;;;12.93;45.41;94312.50;4989038;28;20029;-69
2022/05/07 07:11:11;;;;;;;4.88;3.15;;;;;;;12.91;44.76;94333.41;4991703;28;20018;-69
2022/05/07 07:13:36;;;;;;;5.32;3.33;;;;;;;12.90;45.60;94321.94;4991313;28;20053;-69
2022/05/07 07:16:02;;;;;;;6.32;3.38;;;;;;;12.66;45.35;94298.41;4990495;28;20039;-70
2022/05/07 07:18:27;;;;;;;5.63;3.00;;;;;;;12.97;45.09;94322.25;4987790;28;20604;-69
2022/05/07 07:20:53;;;;;;;3.80;2.67;;;;;;;12.98;45.75;94320.34;4992809;28;20462;-69
2022/05/07 07:23:18;;;;;;;3.55;3.25;;;;;;;13.08;46.06;94314.69;4988851;28;20475;-69
2022/05/07 07:25:44;;;;;;;6.25;3.33;;;;;;;13.16;45.39;94305.88;4990098;28;20168;-69
2022/05/07 07:28:11;;;;;;;5.32;3.22;;;;;;;13.15;45.25;94313.09;4992196;28;21350;-69
2022/05/07 07:30:37;;;;;;;4.07;2.85;;;;;;;13.22;45.01;94313.41;4989434;28;20129;-69
2022/05/07 07:33:04;;;;;;;6.75;2.95;;;;;;;13.29;44.93;94310.28;4985410;28;20084;-70
2022/05/07 07:35:30;;;;;;;3.70;3.03;;;;;;;13.24;45.56;94294.41;4973983;28;20148;-68
2022/05/07 07:37:56;;;;;;;3.67;2.80;;;;;;;13.49;45.18;94304.25;4974523;28;20786;-69
2022/05/07 07:40:22;;;;;;;6.70;3.17;;;;;;;13.17;44.80;94296.78;4971994;28;20086;-69
2022/05/07 07:42:47;;;;;;;7.22;4.15;;;;;;;13.22;45.33;94283.25;4971052;28;20077;-70
2022/05/07 07:47:57;;;;;;;8.55;3.67;;;;;;;13.22;44.94;94307.28;4964758;28;20120;-69
2022/05/07 07:50:27;;;;;;;4.55;3.00;;;;;;;13.32;45.08;94293.59;4963680;28;20410;-69
2022/05/07 07:52:53;;;;;;;5.88;3.67;;;;;;;13.40;45.43;94284.75;4964429;28;20034;-68
2022/05/07 07:55:19;;;;;;;5.07;3.40;;;;;;;13.44;44.26;94279.59;4961960;28;20407;-69
2022/05/07 07:57:45;;;;;;;6.57;3.53;;;;;;;13.17;44.10;94286.09;4965031;28;20038;-69
2022/05/07 08:00:11;;;;;;;4.72;3.45;;;;;;;13.01;44.48;94277.00;4969752;28;20049;-69
2022/05/07 08:02:53;;;;;;;8.65;3.60;;;;;;;13.18;45.11;94306.34;4982432;28;20304;-69
2022/05/07 08:05:23;;;;;;;6.05;3.22;;;;;;;13.15;44.47;94309.66;4981974;28;20516;-70
2022/05/07 08:13:17;;;;;;;5.70;3.45;;;;;;;13.34;44.63;94296.75;4987654;28;20049;-69
2022/05/07 08:15:43;;;;;;;4.22;2.88;;;;;;;13.43;44.46;94288.69;4984691;28;20415;-69
2022/05/07 08:18:08;;;;;;;7.85;3.72;;;;;;;13.85;44.05;94298.47;4981783;28;20524;-70
2022/05/07 08:20:34;;;;;;;4.97;2.83;;;;;;;13.68;44.17;94302.03;4990813;28;20080;-69
2022/05/07 08:22:59;;;;;;;5.10;3.15;;;;;;;13.57;44.17;94303.44;4985858;28;20834;-70
2022/05/07 08:25:25;;;;;;;6.10;3.58;;;;;;;13.45;43.72;94303.28;4987473;28;20439;-69
2022/05/07 08:27:50;;;;;;;5.20;2.88;;;;;;;13.57;43.97;94286.59;4988524;28;20052;-70
2022/05/07 08:30:15;;;;;;;4.47;3.00;;;;;;;13.78;43.77;94319.59;4983679;28;20565;-70
2022/05/07 08:32:41;;;;;;;6.22;3.95;;;;;;;13.34;43.78;94291.41;4986774;28;20032;-69
2022/05/07 08:35:07;;;;;;;4.78;2.85;;;;;;;13.57;44.53;94313.34;4982662;28;20437;-69
2022/05/07 08:37:32;;;;;;;4.93;3.03;;;;;;;13.51;44.20;94311.94;4991681;28;20100;-69
2022/05/07 08:40:01;;;;;;;4.97;3.35;;;;;;;13.42;44.22;94281.78;4988551;28;20041;-69
2022/05/07 08:42:30;;;;;;;3.78;2.67;;;;;;;13.86;44.58;94299.25;4985220;28;20096;-69
2022/05/07 08:44:57;;;;;;;7.25;3.33;;;;;;;13.93;42.50;94280.84;4985117;28;20046;-69
2022/05/07 08:47:23;;;;;;;5.20;2.92;;;;;;;13.68;43.00;94310.03;4990572;28;20060;-70
2022/05/07 08:49:50;;;;;;;4.40;3.40;;;;;;;13.38;42.86;94299.56;4979055;28;20327;-69
2022/05/07 08:52:20;;;;;;;5.80;3.85;;;;;;;13.28;42.60;94295.34;4990871;28;20052;-69
2022/05/07 08:54:46;;;;;;;7.38;4.43;;;;;;;13.36;43.42;94307.88;4977910;28;20137;-69
2022/05/07 08:57:12;;;;;;;6.70;2.80;;;;;;;13.10;43.09;94288.47;4992970;28;20050;-68
2022/05/07 08:59:38;;;;;;;4.45;2.85;;;;;;;13.26;42.97;94309.00;4981707;28;20029;-69
2022/05/07 09:02:04;;;;;;;3.65;2.70;;;;;;;13.27;43.94;94312.47;4987509;28;20425;-69
2022/05/07 09:04:30;;;;;;;4.88;3.05;;;;;;;13.36;43.46;94310.56;4986462;28;20056;-70
2022/05/07 09:07:03;;;;;;;3.10;2.78;;;;;;;13.34;43.07;94288.72;4987518;28;20065;-69
2022/05/07 09:09:31;;;;;;;4.60;2.92;;;;;;;13.51;43.19;94298.56;4991249;28;20065;-69
2022/05/07 09:11:58;;;;;;;4.78;3.45;;;;;;;13.74;43.70;94303.38;4988817;28;20387;-69
2022/05/07 09:14:31;;;;;;;3.22;2.45;;;;;;;13.81;42.72;94288.75;4983183;28;20084;-70
2022/05/07 09:16:59;;;;;;;4.97;3.22;;;;;;;13.69;41.98;94284.84;4966625;28;20511;-70
2022/05/07 09:19:28;;;;;;;4.53;2.80;;;;;;;14.01;41.98;94285.34;4969128;28;20518;-72
2022/05/07 09:22:07;;;;;;;3.60;2.70;;;;;;;14.22;42.28;94288.06;4965128;28;20576;-69
2022/05/07 09:24:33;;;;;;;5.20;2.90;;;;;;;14.45;42.09;94284.78;4963857;28;20149;-70
2022/05/07 09:26:59;;;;;;;5.97;3.08;;;;;;;14.66;41.39;94292.06;4965125;28;20035;-68
2022/05/07 09:29:28;;;;;;;3.55;2.65;;;;;;;14.11;39.73;94255.56;4957486;28;20030;-71
2022/05/07 09:31:54;;;;;;;6.15;2.40;;;;;;;14.37;39.60;94272.25;4969377;28;20050;-72
2022/05/07 09:37:18;;;;;;;;;;;;;;;14.31;39.96;94273.53;4967473;28;20604;-69
2022/05/07 09:39:48;;;;;;;4.72;2.67;;;;;;;14.40;39.75;94271.56;4968782;28;19922;-70
2022/05/07 09:42:16;;;;;;;8.10;2.70;;;;;;;14.54;39.99;94266.78;4960443;28;20030;-69
2022/05/07 09:44:43;;;;;;;7.85;2.85;;;;;;;14.31;39.93;94254.03;4967837;28;20363;-68
2022/05/07 09:47:12;;;;;;;5.85;2.42;;;;;;;14.34;39.62;94256.81;4955694;28;20051;-69
2022/05/07 09:50:19;;;;;;;4.13;2.33;;;;;;;14.74;40.18;94254.50;4970931;28;20506;-69
2022/05/07 09:52:25;;;;;;;3.38;2.53;;;;;;;14.60;40.04;94251.31;4970767;28;20438;-69
2022/05/07 09:57:37;;;;;;;5.22;2.72;;;;;;;14.82;39.85;94250.16;4972848;28;20479;-70
2022/05/07 10:00:10;;;;;;;5.25;3.22;;;;;;;14.94;39.83;94252.91;4964708;28;20030;-69
2022/05/07 10:03:03;;;;;;;3.25;2.53;;;;;;;14.83;39.13;94254.41;4961825;28;21314;-69
2022/05/07 10:05:50;;;;;;;2.85;2.13;;;;;;;14.88;38.63;94248.88;4971567;28;20022;-69
2022/05/07 10:08:27;;;;;;;4.40;2.70;;;;;;;14.73;37.93;94244.09;4972082;28;20778;-70
2022/05/07 10:10:54;;;;;;;3.58;2.15;;;;;;;14.76;38.24;94241.59;4968655;28;20034;-70
2022/05/07 10:13:20;;;;;;;4.32;2.03;;;;;;;14.77;37.55;94218.25;4968600;28;20038;-69
2022/05/07 10:15:57;;;;;;;7.72;2.28;;;;;;;14.96;36.85;94237.31;4971268;28;20081;-69
2022/05/07 10:18:33;;;;;;;6.38;2.30;;;;;;;14.86;36.84;94232.34;4986889;28;20062;-69
2022/05/07 10:20:58;;;;;;;4.78;2.55;;;;;;;14.80;37.29;94231.00;4963062;28;20034;-69
2022/05/07 10:23:28;;;;;;;4.85;2.13;;;;;;;14.70;36.97;94216.13;4968587;28;20506;-70
2022/05/07 10:25:58;;;;;;;5.05;2.40;;;;;;;14.82;36.71;94193.94;4964384;28;20750;-69
2022/05/07 10:28:41;;;;;;;5.13;2.28;;;;;;;15.22;36.92;94221.72;4969966;28;21089;-69
2022/05/07 10:31:16;;;;;;;5.32;2.65;;;;;;;15.20;35.38;94229.34;4962242;28;20671;-68
2022/05/07 10:33:41;;;;;;;2.10;1.90;;;;;;;14.84;34.45;94202.44;4966081;28;20042;-68
2022/05/07 10:36:08;;;;;;;4.03;2.53;;;;;;;14.99;34.92;94216.00;4968578;28;20104;-71
2022/05/07 10:38:38;;;;;;;3.67;2.28;;;;;;;15.03;34.85;94224.16;4967749;28;20190;-70
2022/05/07 10:41:05;;;;;;;6.43;2.55;;;;;;;14.83;35.10;94182.13;4968249;28;20537;-71
2022/05/07 10:43:33;;;;;;;2.83;2.05;;;;;;;15.02;34.87;94209.19;4989051;28;20034;-70
2022/05/07 10:46:02;;;;;;;6.18;1.90;;;;;;;15.06;34.93;94212.75;4982170;28;20046;-72
2022/05/07 10:48:28;;;;;;;4.15;2.17;;;;;;;15.05;33.64;94197.81;4984733;28;20034;-71
2022/05/07 10:50:57;;;;;;;3.65;2.25;;;;;;;15.20;33.62;94217.84;4993864;28;20053;-70
2022/05/07 10:53:34;;;;;;;4.20;1.90;;;;;;;15.18;33.54;94202.09;4979547;28;20033;-70
2022/05/07 10:55:59;;;;;;;6.55;2.60;;;;;;;15.18;34.97;94204.75;4988018;28;20339;-71
2022/05/07 10:58:29;;;;;;;5.82;1.95;;;;;;;15.28;33.74;94200.88;4985414;28;20041;-70
2022/05/07 11:00:57;;;;;;;4.50;2.35;;;;;;;15.23;33.68;94193.03;4990265;28;20065;-70
2022/05/07 11:03:27;;;;;;;4.20;2.08;;;;;;;14.97;34.16;94185.28;5005516;28;20052;-70
2022/05/07 11:06:00;;;;;;;2.75;2.17;;;;;;;15.09;35.03;94203.28;4990210;28;20029;-71
2022/05/07 11:08:25;;;;;;;4.22;3.30;;;;;;;15.22;34.79;94194.94;4990940;28;20029;-69
2022/05/07 11:11:02;;;;;;;4.22;1.95;;;;;;;15.22;34.84;94186.91;4987207;28;20041;-69
2022/05/07 11:13:27;;;;;;;7.47;2.30;;;;;;;15.29;34.48;94165.72;4979238;28;20510;-69
2022/05/07 11:16:03;;;;;;;3.85;2.15;;;;;;;15.35;33.59;94159.00;4990392;28;20054;-69
2022/05/07 11:18:33;;;;;;;2.15;1.58;;;;;;;15.75;32.20;94183.25;4994189;28;20072;-69
2022/05/07 11:21:05;;;;;;;4.70;2.67;;;;;;;15.83;30.93;94184.28;4986011;28;20037;-69
2022/05/07 11:23:36;;;;;;;4.93;1.95;;;;;;;15.77;29.73;94158.81;4989981;28;20052;-70
2022/05/07 11:26:17;;;;;;;3.45;1.52;;;;;;;15.94;28.93;94184.63;4986701;28;20124;-69
2022/05/07 11:28:44;;;;;;;7.45;2.03;;;;;;;16.20;31.27;94172.38;4989000;28;20041;-71
2022/05/07 11:31:12;;;;;;;1.90;1.58;;;;;;;16.06;27.33;94171.16;4977223;28;20030;-69
2022/05/07 11:33:38;;;;;;;1.55;1.40;;;;;;;15.85;26.61;94161.34;4971376;28;20649;-69
2022/05/07 11:36:06;;;;;;;2.55;2.25;;;;;;;15.92;26.71;94168.84;4965373;28;20046;-70
2022/05/07 11:38:34;;;;;;;2.92;2.03;;;;;;;15.80;25.98;94158.91;4969593;28;20142;-69
2022/05/07 11:41:16;;;;;;;2.33;1.30;;;;;;;15.94;25.53;94147.81;4970188;28;20038;-69
2022/05/07 11:46:33;;;;;;;7.05;1.90;;;;;;;15.70;26.43;94147.84;4957532;28;20057;-69
2022/05/07 11:49:05;;;;;;;5.97;3.20;;;;;;;15.77;27.03;94154.22;4976390;28;20038;-69
2022/05/07 11:51:31;;;;;;;3.50;2.35;;;;;;;15.67;28.02;94148.53;4961051;28;20042;-69
2022/05/07 11:54:00;;;;;;;3.35;1.77;;;;;;;15.88;26.94;94154.56;4977119;28;20669;-69
2022/05/07 11:56:26;;;;;;;3.00;1.30;;;;;;;16.10;27.23;94147.91;4967425;28;20442;-69
2022/05/07 11:58:52;;;;;;;2.95;1.60;;;;;;;16.11;27.31;94152.16;4973272;28;20592;-69
2022/05/07 12:01:31;;;;;;;2.67;1.58;;;;;;;16.05;27.38;94153.50;4968774;28;20558;-69